createdAt,value
2022-11-16T00:00:05.791Z,13.98
2022-11-16T00:02:55.237Z,14.57
2022-11-16T00:05:28.129Z,13.30
2022-11-16T00:07:58.558Z,11.95
2022-11-16T00:10:26.929Z,14.40
2022-11-16T00:12:56.677Z,14.57
2022-11-16T00:15:25.068Z,13.05
2022-11-16T00:17:53.670Z,12.25
2022-11-16T00:20:21.938Z,13.60
2022-11-16T00:22:50.629Z,14.00
2022-11-16T00:25:18.897Z,15.30
2022-11-16T00:27:47.549Z,12.60
2022-11-16T00:30:16.447Z,13.02
2022-11-16T00:32:46.236Z,11.88
2022-11-16T00:35:14.666Z,10.95
2022-11-16T00:37:43.366Z,12.50
2022-11-16T00:40:12.686Z,12.23
2022-11-16T00:42:41.377Z,11.70
2022-11-16T00:45:10.556Z,13.93
2022-11-16T00:47:39.855Z,13.13
2022-11-16T00:50:09.998Z,12.18
2022-11-16T00:52:38.806Z,11.27
2022-11-16T00:55:08.096Z,13.00
2022-11-16T00:57:38.235Z,13.63
2022-11-16T01:00:08.577Z,10.73
2022-11-16T01:02:38.857Z,10.25
2022-11-16T01:05:09.735Z,12.43
2022-11-16T01:07:39.587Z,14.70
2022-11-16T01:10:13.696Z,11.80
2022-11-16T01:12:46.816Z,11.30
2022-11-16T01:15:17.596Z,12.13
2022-11-16T01:17:46.436Z,13.88
2022-11-16T01:20:18.655Z,14.00
2022-11-16T01:22:48.486Z,11.63
2022-11-16T01:25:16.937Z,12.63
2022-11-16T01:27:46.315Z,10.57
2022-11-16T01:30:21.963Z,10.00
2022-11-16T01:33:09.796Z,11.35
2022-11-16T01:35:38.226Z,10.18
2022-11-16T01:38:07.356Z,10.18
2022-11-16T01:40:37.927Z,13.43
2022-11-16T01:43:20.616Z,11.57
2022-11-16T01:45:49.836Z,12.80
2022-11-16T01:48:29.655Z,10.15
2022-11-16T01:50:58.446Z,9.80
2022-11-16T01:53:28.577Z,10.75
2022-11-16T01:55:59.058Z,11.55
2022-11-16T01:58:47.972Z,11.15
2022-11-16T02:01:22.970Z,10.65
2022-11-16T02:03:57.866Z,11.15
2022-11-16T02:06:26.925Z,10.82
2022-11-16T02:09:53.757Z,9.98
2022-11-16T02:12:50.935Z,10.65
2022-11-16T02:15:45.436Z,10.32
2022-11-16T02:19:19.076Z,9.85
2022-11-16T02:22:19.755Z,11.18
2022-11-16T02:25:06.964Z,9.82
2022-11-16T02:28:00.745Z,10.30
2022-11-16T02:30:29.835Z,9.77
2022-11-16T02:33:04.752Z,10.18
2022-11-16T02:35:44.453Z,10.05
2022-11-16T02:38:19.342Z,9.98
2022-11-16T02:40:51.600Z,10.70
2022-11-16T02:43:36.732Z,10.65
2022-11-16T02:46:09.675Z,9.98
2022-11-16T02:48:42.596Z,9.63
2022-11-16T02:51:11.027Z,9.88
2022-11-16T02:54:13.180Z,9.52
2022-11-16T02:56:56.072Z,8.82
2022-11-16T03:02:56.392Z,8.97
2022-11-16T03:05:33.954Z,11.05
2022-11-16T03:08:32.059Z,9.48
2022-11-16T03:11:26.464Z,10.18
2022-11-16T03:14:06.910Z,9.52
2022-11-16T03:16:44.284Z,9.52
2022-11-16T03:19:24.201Z,12.68
2022-11-16T03:22:01.891Z,8.75
2022-11-16T03:24:32.251Z,8.82
2022-11-16T03:27:54.401Z,9.55
2022-11-16T03:30:28.292Z,9.77
2022-11-16T03:33:14.652Z,8.70
2022-11-16T03:35:51.602Z,9.15
2022-11-16T03:38:20.871Z,10.15
2022-11-16T03:40:50.230Z,9.13
2022-11-16T03:43:20.881Z,9.13
2022-11-16T03:45:49.991Z,8.68
2022-11-16T03:48:18.593Z,9.18
2022-11-16T03:50:47.011Z,8.65
2022-11-16T03:53:16.553Z,8.98
2022-11-16T03:55:49.656Z,7.72
2022-11-16T03:58:18.984Z,8.13
2022-11-16T04:00:48.010Z,8.18
2022-11-16T04:03:16.744Z,7.13
2022-11-16T04:06:03.877Z,8.02
2022-11-16T04:08:51.170Z,9.65
2022-11-16T04:11:39.841Z,7.47
2022-11-16T04:14:40.610Z,11.05
2022-11-16T04:17:35.715Z,8.85
2022-11-16T04:20:24.601Z,8.85
2022-11-16T04:23:37.944Z,6.90
2022-11-16T04:26:08.590Z,8.45
2022-11-16T04:28:38.322Z,7.05
2022-11-16T04:31:27.651Z,7.93
2022-11-16T04:34:33.893Z,6.65
2022-11-16T04:37:22.320Z,7.05
2022-11-16T04:39:50.681Z,6.68
2022-11-16T04:42:22.648Z,6.18
2022-11-16T04:45:11.970Z,6.60
2022-11-16T04:47:53.792Z,6.95
2022-11-16T04:50:26.572Z,7.00
2022-11-16T04:52:56.143Z,6.15
2022-11-16T04:55:25.211Z,5.70
2022-11-16T04:57:55.134Z,6.80
2022-11-16T05:00:24.632Z,5.35
2022-11-16T05:02:59.736Z,5.32
2022-11-16T05:05:30.497Z,5.90
2022-11-16T05:08:00.865Z,6.15
2022-11-16T05:10:32.294Z,4.50
2022-11-16T05:13:02.492Z,6.35
2022-11-16T05:15:30.924Z,6.15
2022-11-16T05:18:01.343Z,6.68
2022-11-16T05:20:49.522Z,6.10
2022-11-16T05:23:51.722Z,4.53
2022-11-16T05:28:52.932Z,5.25
2022-11-16T05:31:22.132Z,4.60
2022-11-16T05:33:51.024Z,5.53
2022-11-16T05:36:20.788Z,5.57
2022-11-16T05:38:55.196Z,5.78
2022-11-16T05:41:26.993Z,4.80
2022-11-16T05:43:56.388Z,4.93
2022-11-16T05:46:24.913Z,5.22
2022-11-16T05:48:55.882Z,4.68
2022-11-16T05:51:25.643Z,4.63
2022-11-16T05:53:57.135Z,5.95
2022-11-16T05:56:27.115Z,6.18
2022-11-16T05:58:56.954Z,4.30
2022-11-16T06:01:25.918Z,4.75
2022-11-16T06:03:55.341Z,3.83
2022-11-16T06:06:23.646Z,4.32
2022-11-16T06:08:53.720Z,4.13
2022-11-16T06:11:29.076Z,3.70
2022-11-16T06:14:02.044Z,5.57
2022-11-16T06:16:30.452Z,5.65
2022-11-16T06:19:01.043Z,4.18
2022-11-16T06:21:30.063Z,4.55
2022-11-16T06:24:00.193Z,3.38
2022-11-16T06:26:28.532Z,4.18
2022-11-16T06:28:57.276Z,4.50
2022-11-16T06:31:25.791Z,3.40
2022-11-16T06:33:56.265Z,6.30
2022-11-16T06:36:28.184Z,3.65
2022-11-16T06:39:02.243Z,2.97
2022-11-16T06:41:37.596Z,2.72
2022-11-16T06:44:10.594Z,4.90
2022-11-16T06:46:44.632Z,3.75
2022-11-16T06:49:14.042Z,3.80
2022-11-16T06:51:42.424Z,3.50
2022-11-16T06:54:11.113Z,3.65
2022-11-16T06:56:39.485Z,5.60
2022-11-16T06:59:11.076Z,4.63
2022-11-16T07:01:40.094Z,3.75
2022-11-16T07:04:14.542Z,3.28
2022-11-16T07:06:48.789Z,3.35
2022-11-16T07:09:19.124Z,4.55
2022-11-16T07:11:48.483Z,3.95
2022-11-16T07:14:19.556Z,3.13
2022-11-16T07:16:48.793Z,3.15
2022-11-16T07:19:17.447Z,3.50
2022-11-16T07:21:46.222Z,2.97
2022-11-16T07:24:19.143Z,3.88
2022-11-16T07:26:48.643Z,2.90
2022-11-16T07:32:12.982Z,3.75
2022-11-16T07:34:59.435Z,3.55
2022-11-16T07:37:29.416Z,3.60
2022-11-16T07:39:58.005Z,2.47
2022-11-16T07:42:27.192Z,3.80
2022-11-16T07:45:10.215Z,3.55
2022-11-16T07:47:43.352Z,4.43
2022-11-16T07:50:20.776Z,2.50
2022-11-16T07:52:49.324Z,3.33
2022-11-16T07:55:21.903Z,2.17
2022-11-16T07:57:53.677Z,2.15
2022-11-16T08:00:24.998Z,4.63
2022-11-16T08:03:01.761Z,4.47
2022-11-16T08:05:30.407Z,3.20
2022-11-16T08:07:58.882Z,2.88
2022-11-16T08:10:28.212Z,2.42
2022-11-16T08:12:57.413Z,3.55
2022-11-16T08:15:27.516Z,2.03
2022-11-16T08:17:58.482Z,2.40
2022-11-16T08:20:29.153Z,2.92
2022-11-16T08:23:01.332Z,5.28
2022-11-16T08:25:34.161Z,2.80
2022-11-16T08:28:03.223Z,3.75
2022-11-16T08:30:34.362Z,2.75
2022-11-16T08:33:02.873Z,3.20
2022-11-16T08:35:31.904Z,3.20
2022-11-16T08:38:00.219Z,4.72
2022-11-16T08:40:30.533Z,3.17
2022-11-16T08:42:58.913Z,5.30
2022-11-16T08:45:28.912Z,4.45
2022-11-16T08:48:03.923Z,3.63
2022-11-16T08:51:09.948Z,4.03
2022-11-16T08:53:25.185Z,3.58
2022-11-16T08:55:53.872Z,3.85
2022-11-16T08:58:22.654Z,3.42
2022-11-16T09:00:53.183Z,3.45
2022-11-16T09:03:21.451Z,3.17
2022-11-16T09:05:50.852Z,3.35
2022-11-16T09:08:19.174Z,5.10
2022-11-16T09:10:47.752Z,3.40
2022-11-16T09:13:16.106Z,2.83
2022-11-16T09:15:45.302Z,3.40
2022-11-16T09:18:14.242Z,3.35
2022-11-16T09:20:45.732Z,3.53
2022-11-16T09:23:14.012Z,6.43
2022-11-16T09:25:45.955Z,4.95
2022-11-16T09:28:21.423Z,3.38
2022-11-16T09:30:51.279Z,4.35
2022-11-16T09:33:19.645Z,4.47
2022-11-16T09:35:48.343Z,3.38
2022-11-16T09:38:24.181Z,4.50
2022-11-16T09:41:15.362Z,3.47
2022-11-16T09:43:56.324Z,3.05
2022-11-16T09:46:41.112Z,3.35
2022-11-16T09:49:23.083Z,5.82
2022-11-16T09:54:26.723Z,3.03
2022-11-16T09:57:01.671Z,5.10
2022-11-16T09:59:48.352Z,3.05
2022-11-16T10:02:33.002Z,2.38
2022-11-16T10:05:37.453Z,2.90
2022-11-16T10:08:25.804Z,2.88
2022-11-16T10:11:19.562Z,3.03
2022-11-16T10:14:04.986Z,2.75
2022-11-16T10:17:13.073Z,3.53
2022-11-16T10:20:14.126Z,2.50
2022-11-16T10:23:06.792Z,4.97
2022-11-16T10:25:46.423Z,3.47
2022-11-16T10:28:27.735Z,2.40
2022-11-16T10:31:32.334Z,2.72
2022-11-16T10:34:00.602Z,3.13
2022-11-16T10:36:30.882Z,5.43
2022-11-16T10:38:59.274Z,3.70
2022-11-16T10:41:40.282Z,3.03
2022-11-16T10:44:41.643Z,3.92
2022-11-16T10:47:23.087Z,3.17
2022-11-16T10:49:57.842Z,3.92
2022-11-16T10:52:26.532Z,6.15
2022-11-16T10:54:54.792Z,5.68
2022-11-16T10:57:25.134Z,5.20
2022-11-16T10:59:59.393Z,3.90
2022-11-16T11:02:35.803Z,3.60
2022-11-16T11:05:22.812Z,3.80
2022-11-16T11:08:03.523Z,3.72
2022-11-16T11:10:39.354Z,5.60
2022-11-16T11:13:10.976Z,4.18
2022-11-16T11:15:43.270Z,3.50
2022-11-16T11:18:23.667Z,3.95
2022-11-16T11:21:05.933Z,4.45
2022-11-16T11:23:53.682Z,5.45
2022-11-16T11:26:40.531Z,4.13
2022-11-16T11:29:32.356Z,4.45
2022-11-16T11:32:24.389Z,3.58
2022-11-16T11:34:54.616Z,4.65
2022-11-16T11:37:34.173Z,4.72
2022-11-16T11:40:22.903Z,5.15
2022-11-16T11:42:57.838Z,4.28
2022-11-16T11:45:33.703Z,3.35
2022-11-16T11:48:07.466Z,4.00
2022-11-16T11:50:50.761Z,4.82
2022-11-16T11:53:52.982Z,5.95
2022-11-16T11:58:51.925Z,4.20
2022-11-16T12:01:48.045Z,5.82
2022-11-16T12:04:31.031Z,4.70
2022-11-16T12:09:48.935Z,4.75
2022-11-16T12:12:51.592Z,5.32
2022-11-16T12:15:44.782Z,5.80
2022-11-16T12:21:22.495Z,4.28
2022-11-16T12:24:11.812Z,6.13
2022-11-16T12:27:16.601Z,8.77
2022-11-16T12:30:22.371Z,22.30
2022-11-16T12:33:43.660Z,16.73
2022-11-16T12:36:41.002Z,25.08
2022-11-16T12:39:31.923Z,22.52
2022-11-16T12:42:17.211Z,30.08
2022-11-16T12:45:12.924Z,32.33
2022-11-16T12:47:51.562Z,22.65
2022-11-16T12:50:59.431Z,31.00
2022-11-16T12:54:01.161Z,19.02
2022-11-16T12:56:45.920Z,23.48
2022-11-16T12:59:28.552Z,20.73
2022-11-16T13:02:51.173Z,21.17
2022-11-16T13:05:51.660Z,16.10
2022-11-16T13:08:50.208Z,18.25
2022-11-16T13:11:28.433Z,15.10
2022-11-16T13:14:01.231Z,20.80
2022-11-16T13:16:30.321Z,12.82
2022-11-16T13:18:59.422Z,13.75
2022-11-16T13:21:57.219Z,14.40
2022-11-16T13:25:00.575Z,15.05
2022-11-16T13:27:31.752Z,18.95
2022-11-16T13:30:22.610Z,19.50
2022-11-16T13:33:30.730Z,14.20
2022-11-16T13:35:59.037Z,17.40
2022-11-16T13:38:52.969Z,14.25
2022-11-16T13:43:58.475Z,17.50
2022-11-16T13:46:57.854Z,16.10
2022-11-16T13:49:57.804Z,16.13
2022-11-16T13:53:41.221Z,14.63
2022-11-16T13:55:44.464Z,13.57
2022-11-16T13:58:21.290Z,11.48
2022-11-16T14:01:15.757Z,10.60
2022-11-16T14:03:45.633Z,8.60
2022-11-16T14:06:19.951Z,11.00
2022-11-16T14:08:56.072Z,14.88
2022-11-16T14:11:38.972Z,12.05
2022-11-16T14:14:33.931Z,16.77
2022-11-16T14:17:03.722Z,7.53
2022-11-16T14:19:55.385Z,11.80
2022-11-16T14:22:56.430Z,6.72
2022-11-16T14:25:36.651Z,6.85
2022-11-16T14:28:24.663Z,9.77
2022-11-16T14:31:23.170Z,8.50
2022-11-16T14:33:53.870Z,10.02
2022-11-16T14:36:54.641Z,10.38
2022-11-16T14:39:38.368Z,11.00
2022-11-16T14:46:29.223Z,10.98
2022-11-16T14:48:59.720Z,8.52
2022-11-16T14:51:38.119Z,8.10
2022-11-16T14:54:17.791Z,9.57
2022-11-16T14:57:00.167Z,11.25
2022-11-16T14:59:30.450Z,9.35
2022-11-16T15:02:34.800Z,8.98
2022-11-16T15:05:04.541Z,7.80
2022-11-16T15:07:35.630Z,7.65
2022-11-16T15:10:05.314Z,12.75
2022-11-16T15:12:43.085Z,8.30
2022-11-16T15:15:12.197Z,9.30
2022-11-16T15:17:44.445Z,9.55
2022-11-16T15:20:23.424Z,7.63
2022-11-16T15:22:54.692Z,9.75
2022-11-16T15:25:59.530Z,8.93
2022-11-16T15:28:31.870Z,10.32
2022-11-16T15:31:05.069Z,8.20
2022-11-16T15:33:40.977Z,7.38
2022-11-16T15:36:39.100Z,10.55
2022-11-16T15:39:24.608Z,8.95
2022-11-16T15:41:56.435Z,8.55
2022-11-16T15:44:29.283Z,8.30
2022-11-16T15:46:57.642Z,6.53
2022-11-16T15:49:37.697Z,10.60
2022-11-16T15:52:06.033Z,8.48
2022-11-16T15:54:54.933Z,8.57
2022-11-16T15:57:24.010Z,8.70
2022-11-16T16:00:00.346Z,12.48
2022-11-16T16:02:29.432Z,8.63
2022-11-16T16:04:58.114Z,8.82
2022-11-16T16:07:55.652Z,10.85
2022-11-16T16:10:25.823Z,8.82
2022-11-16T16:12:59.649Z,9.68
2022-11-16T16:15:36.975Z,9.77
2022-11-16T16:18:12.526Z,7.25
2022-11-16T16:20:41.229Z,9.98
2022-11-16T16:23:13.293Z,8.82
2022-11-16T16:25:46.007Z,9.93
2022-11-16T16:28:18.551Z,8.80
2022-11-16T16:30:47.183Z,9.35
2022-11-16T16:33:20.310Z,9.80
2022-11-16T16:35:49.936Z,9.05
2022-11-16T16:38:18.266Z,8.75
2022-11-16T16:40:46.764Z,7.90
2022-11-16T16:43:15.046Z,9.07
2022-11-16T16:45:44.062Z,8.27
2022-11-16T16:48:13.514Z,11.30
2022-11-16T16:50:42.209Z,9.57
2022-11-16T16:53:14.234Z,9.57
2022-11-16T16:55:43.290Z,8.45
2022-11-16T16:58:12.880Z,8.10
2022-11-16T17:00:41.867Z,10.27
2022-11-16T17:03:10.360Z,8.05
2022-11-16T17:05:40.214Z,12.68
2022-11-16T17:08:08.571Z,9.38
2022-11-16T17:10:39.191Z,11.40
2022-11-16T17:13:07.409Z,10.27
2022-11-16T17:15:35.991Z,9.30
2022-11-16T17:18:04.331Z,9.35
2022-11-16T17:20:33.381Z,9.95
2022-11-16T17:23:02.220Z,9.45
2022-11-16T17:25:33.341Z,9.45
2022-11-16T17:28:01.651Z,10.90
2022-11-16T17:30:30.292Z,13.98
2022-11-16T17:32:58.673Z,9.48
2022-11-16T17:35:27.250Z,9.80
2022-11-16T17:37:55.604Z,12.07
2022-11-16T17:40:25.363Z,9.18
2022-11-16T17:42:53.680Z,9.93
2022-11-16T17:45:22.401Z,12.48
2022-11-16T17:47:50.672Z,11.75
2022-11-16T17:50:20.506Z,13.57
2022-11-16T17:52:48.751Z,11.93
2022-11-16T17:55:17.452Z,9.85
2022-11-16T17:57:45.712Z,12.52
2022-11-16T18:00:18.076Z,9.98
2022-11-16T18:02:46.831Z,11.90
2022-11-16T18:05:16.478Z,10.18
2022-11-16T18:07:44.761Z,11.98
2022-11-16T18:10:18.933Z,11.82
2022-11-16T18:12:47.562Z,13.43
2022-11-16T18:15:28.614Z,10.38
2022-11-16T18:17:57.541Z,12.68
2022-11-16T18:20:27.825Z,13.02
2022-11-16T18:22:57.521Z,11.98
2022-11-16T18:25:27.224Z,10.38
2022-11-16T18:27:55.839Z,16.92
2022-11-16T18:30:24.476Z,12.98
2022-11-16T18:32:52.938Z,12.93
2022-11-16T18:35:23.071Z,14.32
2022-11-16T18:37:53.167Z,21.02
2022-11-16T18:40:22.061Z,15.10
2022-11-16T18:42:50.616Z,11.55
2022-11-16T18:45:20.271Z,12.48
2022-11-16T18:47:48.744Z,13.80
2022-11-16T18:50:21.429Z,16.10
2022-11-16T18:52:52.687Z,16.65
2022-11-16T18:55:21.577Z,17.50
2022-11-16T18:57:50.164Z,13.73
2022-11-16T19:00:20.509Z,14.90
2022-11-16T19:02:49.159Z,13.85
2022-11-16T19:05:18.142Z,15.52
2022-11-16T19:07:46.707Z,18.58
2022-11-16T19:10:16.877Z,18.35
2022-11-16T19:12:45.548Z,14.23
2022-11-16T19:15:14.407Z,14.45
2022-11-16T19:17:59.627Z,14.63
2022-11-16T19:20:33.119Z,15.63
2022-11-16T19:23:02.761Z,14.85
2022-11-16T19:25:31.866Z,17.90
2022-11-16T19:28:00.457Z,16.55
2022-11-16T19:30:29.458Z,15.35
2022-11-16T19:32:59.457Z,17.83
2022-11-16T19:35:29.149Z,18.23
2022-11-16T19:37:58.377Z,13.00
2022-11-16T19:40:27.207Z,15.35
2022-11-16T19:42:55.666Z,16.90
2022-11-16T19:45:24.500Z,12.48
2022-11-16T19:47:53.059Z,14.82
2022-11-16T19:50:23.923Z,13.57
2022-11-16T19:52:52.547Z,19.17
2022-11-16T19:55:22.285Z,14.40
2022-11-16T19:57:50.897Z,14.82
2022-11-16T20:00:20.055Z,18.17
2022-11-16T20:02:48.655Z,14.05
2022-11-16T20:05:17.527Z,14.13
2022-11-16T20:07:46.119Z,14.55
2022-11-16T20:10:15.409Z,14.02
2022-11-16T20:12:44.013Z,15.55
2022-11-16T20:15:13.508Z,13.30
2022-11-16T20:17:42.132Z,13.07
2022-11-16T20:20:11.561Z,13.23
2022-11-16T20:22:40.235Z,14.82
2022-11-16T20:25:10.106Z,13.82
2022-11-16T20:27:40.861Z,12.63
2022-11-16T20:30:11.536Z,12.60
2022-11-16T20:32:40.096Z,12.90
2022-11-16T20:35:18.777Z,15.13
2022-11-16T20:37:48.755Z,11.98
2022-11-16T20:40:19.413Z,14.25
2022-11-16T20:42:48.136Z,15.65
2022-11-16T20:45:17.001Z,14.20
2022-11-16T20:47:45.505Z,12.68
2022-11-16T20:50:14.546Z,13.77
2022-11-16T20:52:45.177Z,12.85
2022-11-16T20:55:17.485Z,14.68
2022-11-16T20:57:46.106Z,13.27
2022-11-16T21:00:16.405Z,13.40
2022-11-16T21:02:45.115Z,14.32
2022-11-16T21:05:14.138Z,16.73
2022-11-16T21:07:44.254Z,11.23
2022-11-16T21:10:19.985Z,12.85
2022-11-16T21:13:07.168Z,13.25
2022-11-16T21:15:36.066Z,13.15
2022-11-16T21:18:04.965Z,11.65
2022-11-16T21:20:35.981Z,12.73
2022-11-16T21:23:04.483Z,11.82
2022-11-16T21:25:34.843Z,12.45
2022-11-16T21:28:04.404Z,13.05
2022-11-16T21:30:33.252Z,16.30
2022-11-16T21:33:01.853Z,13.82
2022-11-16T21:35:30.918Z,13.13
2022-11-16T21:37:59.453Z,14.48
2022-11-16T21:40:30.111Z,13.65
2022-11-16T21:42:58.631Z,14.30
2022-11-16T21:45:27.495Z,11.43
2022-11-16T21:47:56.146Z,14.18
2022-11-16T21:50:31.525Z,11.95
2022-11-16T21:53:01.510Z,10.68
2022-11-16T21:55:30.625Z,18.73
2022-11-16T21:57:59.345Z,12.18
2022-11-16T22:00:28.574Z,10.93
2022-11-16T22:02:57.307Z,13.13
2022-11-16T22:05:55.969Z,11.82
2022-11-16T22:08:24.654Z,11.70
2022-11-16T22:10:53.658Z,17.08
2022-11-16T22:13:22.276Z,11.65
2022-11-16T22:15:52.700Z,16.48
2022-11-16T22:18:21.236Z,13.10
2022-11-16T22:20:50.273Z,12.93
2022-11-16T22:23:22.956Z,13.45
2022-11-16T22:25:53.288Z,13.48
2022-11-16T22:28:22.259Z,11.27
2022-11-16T22:30:58.653Z,12.18
2022-11-16T22:33:27.345Z,13.35
2022-11-16T22:35:56.512Z,12.20
2022-11-16T22:38:25.063Z,16.17
2022-11-16T22:40:57.162Z,15.20
2022-11-16T22:43:28.415Z,12.25
2022-11-16T22:46:04.536Z,11.98
2022-11-16T22:48:38.304Z,12.38
2022-11-16T22:51:12.726Z,12.77
2022-11-16T22:53:41.344Z,12.70
2022-11-16T22:56:10.433Z,12.82
2022-11-16T22:58:39.306Z,18.00
2022-11-16T23:01:09.700Z,15.40
2022-11-16T23:03:38.812Z,11.73
2022-11-16T23:06:08.286Z,12.77
2022-11-16T23:08:37.186Z,11.90
2022-11-16T23:11:38.047Z,10.32
2022-11-16T23:14:27.636Z,12.23
2022-11-16T23:16:56.545Z,12.73
2022-11-16T23:19:44.207Z,13.70
2022-11-16T23:22:34.885Z,11.23
2022-11-16T23:25:23.036Z,9.98
2022-11-16T23:28:07.530Z,11.18
2022-11-16T23:30:36.405Z,10.73
2022-11-16T23:33:05.234Z,11.02
2022-11-16T23:35:33.915Z,11.20
2022-11-16T23:38:06.934Z,11.25
2022-11-16T23:40:38.828Z,10.85
2022-11-16T23:43:28.916Z,10.80
2022-11-16T23:45:57.922Z,10.35
2022-11-16T23:48:26.628Z,12.32
2022-11-16T23:50:55.087Z,11.63
2022-11-16T23:53:23.836Z,10.40
2022-11-16T23:55:53.054Z,10.32
2022-11-16T23:58:21.837Z,11.02
